sensor_id;sensor_type;location;lat;lon;timestamp;pressure;altitude;pressure_sealevel;temperature;humidity
47985;BME280;33753;52.912;-7.342;2023-05-22T00:02:10;101402.63;;;13.01;100.00
47985;BME280;33753;52.912;-7.342;2023-05-22T00:04:43;101408.59;;;13.05;100.00
47985;BME280;33753;52.912;-7.342;2023-05-22T00:07:12;101411.97;;;13.07;100.00
47985;BME280;33753;52.912;-7.342;2023-05-22T00:09:40;101417.25;;;13.08;100.00
47985;BME280;33753;52.912;-7.342;2023-05-22T00:12:09;101422.50;;;13.10;100.00
47985;BME280;33753;52.912;-7.342;2023-05-22T00:14:37;101419.44;;;13.13;100.00
47985;BME280;33753;52.912;-7.342;2023-05-22T00:17:05;101412.19;;;13.13;100.00
47985;BME280;33753;52.912;-7.342;2023-05-22T00:19:33;101416.56;;;13.06;100.00
47985;BME280;33753;52.912;-7.342;2023-05-22T00:22:03;101408.88;;;13.02;100.00
47985;BME280;33753;52.912;-7.342;2023-05-22T00:24:32;101413.81;;;12.98;100.00
47985;BME280;33753;52.912;-7.342;2023-05-22T00:27:00;101411.78;;;13.00;100.00
47985;BME280;33753;52.912;-7.342;2023-05-22T00:29:28;101409.22;;;12.99;100.00
47985;BME280;33753;52.912;-7.342;2023-05-22T00:31:56;101404.13;;;12.95;100.00
47985;BME280;33753;52.912;-7.342;2023-05-22T00:34:25;101407.84;;;12.94;100.00
47985;BME280;33753;52.912;-7.342;2023-05-22T00:36:53;101406.16;;;12.93;100.00
47985;BME280;33753;52.912;-7.342;2023-05-22T00:39:23;101408.50;;;12.88;100.00
47985;BME280;33753;52.912;-7.342;2023-05-22T00:41:51;101409.22;;;12.90;100.00
47985;BME280;33753;52.912;-7.342;2023-05-22T00:44:19;101410.06;;;12.91;100.00
47985;BME280;33753;52.912;-7.342;2023-05-22T00:46:49;101409.22;;;12.90;100.00
47985;BME280;33753;52.912;-7.342;2023-05-22T00:49:18;101409.03;;;12.92;100.00
47985;BME280;33753;52.912;-7.342;2023-05-22T00:51:46;101412.94;;;12.89;100.00
47985;BME280;33753;52.912;-7.342;2023-05-22T00:54:14;101414.47;;;12.92;100.00
47985;BME280;33753;52.912;-7.342;2023-05-22T00:56:45;101413.59;;;12.91;100.00
47985;BME280;33753;52.912;-7.342;2023-05-22T00:59:13;101420.75;;;12.92;100.00
47985;BME280;33753;52.912;-7.342;2023-05-22T01:01:42;101417.34;;;12.90;100.00
47985;BME280;33753;52.912;-7.342;2023-05-22T01:04:11;101417.34;;;12.90;100.00
47985;BME280;33753;52.912;-7.342;2023-05-22T01:06:41;101417.34;;;12.90;100.00
47985;BME280;33753;52.912;-7.342;2023-05-22T01:09:13;101412.22;;;12.87;100.00
47985;BME280;33753;52.912;-7.342;2023-05-22T01:11:44;101419.53;;;12.87;100.00
47985;BME280;33753;52.912;-7.342;2023-05-22T01:14:19;101408.13;;;12.83;100.00
47985;BME280;33753;52.912;-7.342;2023-05-22T01:16:51;101418.31;;;12.81;100.00
47985;BME280;33753;52.912;-7.342;2023-05-22T01:19:27;101421.72;;;12.83;100.00
47985;BME280;33753;52.912;-7.342;2023-05-22T01:22:06;101416.28;;;12.83;100.00
47985;BME280;33753;52.912;-7.342;2023-05-22T01:24:48;101412.88;;;12.81;100.00
47985;BME280;33753;52.912;-7.342;2023-05-22T01:30:24;101421.03;;;12.81;100.00
47985;BME280;33753;52.912;-7.342;2023-05-22T01:32:56;101430.56;;;12.85;100.00
47985;BME280;33753;52.912;-7.342;2023-05-22T01:35:25;101432.28;;;12.86;100.00
47985;BME280;33753;52.912;-7.342;2023-05-22T01:37:54;101426.50;;;12.89;100.00
47985;BME280;33753;52.912;-7.342;2023-05-22T01:40:24;101437.38;;;12.89;100.00
47985;BME280;33753;52.912;-7.342;2023-05-22T01:42:52;101435.34;;;12.91;100.00
47985;BME280;33753;52.912;-7.342;2023-05-22T01:45:22;101424.13;;;12.94;100.00
47985;BME280;33753;52.912;-7.342;2023-05-22T01:47:51;101425.84;;;12.95;100.00
47985;BME280;33753;52.912;-7.342;2023-05-22T01:50:21;101427.56;;;12.96;100.00
47985;BME280;33753;52.912;-7.342;2023-05-22T01:52:51;101426.72;;;12.96;100.00
47985;BME280;33753;52.912;-7.342;2023-05-22T01:55:22;101423.84;;;12.98;100.00
47985;BME280;33753;52.912;-7.342;2023-05-22T01:57:54;101430.09;;;12.98;100.00
47985;BME280;33753;52.912;-7.342;2023-05-22T02:00:25;101421.78;;;13.00;100.00
47985;BME280;33753;52.912;-7.342;2023-05-22T02:02:56;101426.22;;;13.01;100.00
47985;BME280;33753;52.912;-7.342;2023-05-22T02:05:26;101419.91;;;13.00;100.00
47985;BME280;33753;52.912;-7.342;2023-05-22T02:07:57;101431.66;;;13.01;100.00
47985;BME280;33753;52.912;-7.342;2023-05-22T02:10:27;101429.78;;;13.01;100.00
47985;BME280;33753;52.912;-7.342;2023-05-22T02:12:56;101426.22;;;13.01;100.00
47985;BME280;33753;52.912;-7.342;2023-05-22T02:15:24;101425.69;;;12.97;100.00
47985;BME280;33753;52.912;-7.342;2023-05-22T02:17:53;101421.97;;;12.98;100.00
47985;BME280;33753;52.912;-7.342;2023-05-22T02:20:22;101429.91;;;12.91;100.00
47985;BME280;33753;52.912;-7.342;2023-05-22T02:22:52;101435.00;;;12.94;100.00
47985;BME280;33753;52.912;-7.342;2023-05-22T02:25:20;101429.72;;;12.93;100.00
47985;BME280;33753;52.912;-7.342;2023-05-22T02:27:48;101432.28;;;12.86;100.00
47985;BME280;33753;52.912;-7.342;2023-05-22T02:30:17;101429.69;;;12.76;100.00
47985;BME280;33753;52.912;-7.342;2023-05-22T02:32:48;101437.50;;;12.79;100.00
47985;BME280;33753;52.912;-7.342;2023-05-22T02:35:16;101442.91;;;12.79;100.00
47985;BME280;33753;52.912;-7.342;2023-05-22T02:37:44;101445.09;;;12.76;100.00
47985;BME280;33753;52.912;-7.342;2023-05-22T02:40:14;101450.19;;;12.71;100.00
47985;BME280;33753;52.912;-7.342;2023-05-22T02:42:42;101444.38;;;12.66;100.00
47985;BME280;33753;52.912;-7.342;2023-05-22T02:45:11;101444.00;;;12.60;100.00
47985;BME280;33753;52.912;-7.342;2023-05-22T02:47:40;101444.63;;;12.54;100.00
47985;BME280;33753;52.912;-7.342;2023-05-22T02:50:08;101445.34;;;12.56;100.00
47985;BME280;33753;52.912;-7.342;2023-05-22T02:52:37;101451.94;;;12.54;100.00
47985;BME280;33753;52.912;-7.342;2023-05-22T02:55:06;101450.38;;;12.51;100.00
47985;BME280;33753;52.912;-7.342;2023-05-22T02:57:36;101443.81;;;12.54;100.00
47985;BME280;33753;52.912;-7.342;2023-05-22T03:00:04;101450.38;;;12.51;100.00
47985;BME280;33753;52.912;-7.342;2023-05-22T03:02:37;101443.97;;;12.52;100.00
47985;BME280;33753;52.912;-7.342;2023-05-22T03:05:08;101436.75;;;12.43;100.00
47985;BME280;33753;52.912;-7.342;2023-05-22T03:07:36;101437.72;;;12.34;100.00
47985;BME280;33753;52.912;-7.342;2023-05-22T03:10:06;101433.56;;;12.21;100.00
47985;BME280;33753;52.912;-7.342;2023-05-22T03:12:35;101439.88;;;12.22;100.00
47985;BME280;33753;52.912;-7.342;2023-05-22T03:15:04;101430.78;;;12.13;100.00
47985;BME280;33753;52.912;-7.342;2023-05-22T03:17:33;101439.25;;;12.10;100.00
47985;BME280;33753;52.912;-7.342;2023-05-22T03:20:01;101442.50;;;12.14;100.00
47985;BME280;33753;52.912;-7.342;2023-05-22T03:22:31;101447.69;;;12.07;100.00
47985;BME280;33753;52.912;-7.342;2023-05-22T03:24:59;101447.47;;;12.00;100.00
47985;BME280;33753;52.912;-7.342;2023-05-22T03:27:28;101443.22;;;11.98;100.00
47985;BME280;33753;52.912;-7.342;2023-05-22T03:29:58;101436.97;;;11.87;100.00
47985;BME280;33753;52.912;-7.342;2023-05-22T03:32:26;101434.91;;;11.81;100.00
47985;BME280;33753;52.912;-7.342;2023-05-22T03:34:56;101427.09;;;11.78;100.00
47985;BME280;33753;52.912;-7.342;2023-05-22T03:37:24;101424.63;;;11.67;100.00
47985;BME280;33753;52.912;-7.342;2023-05-22T03:39:52;101420.81;;;11.59;100.00
47985;BME280;33753;52.912;-7.342;2023-05-22T03:42:25;101417.13;;;11.61;100.00
47985;BME280;33753;52.912;-7.342;2023-05-22T03:44:54;101421.06;;;11.48;100.00
47985;BME280;33753;52.912;-7.342;2023-05-22T03:47:25;101428.50;;;11.46;100.00
47985;BME280;33753;52.912;-7.342;2023-05-22T03:49:54;101419.28;;;11.39;100.00
47985;BME280;33753;52.912;-7.342;2023-05-22T03:52:22;101421.19;;;11.29;100.00
47985;BME280;33753;52.912;-7.342;2023-05-22T03:54:50;101425.59;;;11.30;100.00
47985;BME280;33753;52.912;-7.342;2023-05-22T03:57:19;101434.34;;;11.23;100.00
47985;BME280;33753;52.912;-7.342;2023-05-22T03:59:47;101443.16;;;11.26;100.00
47985;BME280;33753;52.912;-7.342;2023-05-22T04:02:16;101457.41;;;11.28;100.00
47985;BME280;33753;52.912;-7.342;2023-05-22T04:04:45;101452.44;;;11.23;100.00
47985;BME280;33753;52.912;-7.342;2023-05-22T04:07:14;101455.84;;;11.25;100.00
47985;BME280;33753;52.912;-7.342;2023-05-22T04:09:44;101458.72;;;11.23;100.00
47985;BME280;33753;52.912;-7.342;2023-05-22T04:12:12;101463.13;;;11.24;100.00
47985;BME280;33753;52.912;-7.342;2023-05-22T04:14:41;101463.56;;;11.20;100.00
47985;BME280;33753;52.912;-7.342;2023-05-22T04:17:10;101470.28;;;11.16;100.00
47985;BME280;33753;52.912;-7.342;2023-05-22T04:19:38;101469.44;;;11.15;100.00
47985;BME280;33753;52.912;-7.342;2023-05-22T04:22:08;101470.59;;;11.13;100.00
47985;BME280;33753;52.912;-7.342;2023-05-22T04:24:36;101477.16;;;11.10;100.00
47985;BME280;33753;52.912;-7.342;2023-05-22T04:27:05;101474.59;;;11.09;100.00
47985;BME280;33753;52.912;-7.342;2023-05-22T04:29:34;101465.53;;;11.00;100.00
47985;BME280;33753;52.912;-7.342;2023-05-22T04:32:03;101479.06;;;11.00;100.00
47985;BME280;33753;52.912;-7.342;2023-05-22T04:34:33;101478.53;;;10.96;100.00
47985;BME280;33753;52.912;-7.342;2023-05-22T04:37:03;101477.56;;;10.87;100.00
47985;BME280;33753;52.912;-7.342;2023-05-22T04:39:33;101486.06;;;10.93;100.00
47985;BME280;33753;52.912;-7.342;2023-05-22T04:42:01;101488.94;;;10.91;100.00
47985;BME280;33753;52.912;-7.342;2023-05-22T04:44:31;101503.44;;;10.90;100.00
47985;BME280;33753;52.912;-7.342;2023-05-22T04:47:00;101492.09;;;10.86;100.00
47985;BME280;33753;52.912;-7.342;2023-05-22T04:49:30;101495.63;;;10.87;100.00
47985;BME280;33753;52.912;-7.342;2023-05-22T04:51:59;101502.91;;;10.86;100.00
47985;BME280;33753;52.912;-7.342;2023-05-22T04:54:30;101511.72;;;10.88;100.00
47985;BME280;33753;52.912;-7.342;2023-05-22T04:57:00;101514.72;;;10.85;100.00
47985;BME280;33753;52.912;-7.342;2023-05-22T04:59:30;101521.13;;;10.84;100.00
47985;BME280;33753;52.912;-7.342;2023-05-22T05:01:59;101516.75;;;10.83;100.00
47985;BME280;33753;52.912;-7.342;2023-05-22T05:04:27;101517.75;;;10.82;100.00
47985;BME280;33753;52.912;-7.342;2023-05-22T05:06:55;101522.16;;;10.83;100.00
47985;BME280;33753;52.912;-7.342;2023-05-22T05:09:24;101523.16;;;10.82;100.00
47985;BME280;33753;52.912;-7.342;2023-05-22T05:11:53;101521.44;;;10.81;100.00
47985;BME280;33753;52.912;-7.342;2023-05-22T05:14:24;101526.84;;;10.81;100.00
47985;BME280;33753;52.912;-7.342;2023-05-22T05:16:52;101532.84;;;10.75;100.00
47985;BME280;33753;52.912;-7.342;2023-05-22T05:19:21;101527.31;;;10.67;100.00
47985;BME280;33753;52.912;-7.342;2023-05-22T05:21:49;101517.94;;;10.61;100.00
47985;BME280;33753;52.912;-7.342;2023-05-22T05:24:19;101512.38;;;10.53;100.00
47985;BME280;33753;52.912;-7.342;2023-05-22T05:26:48;101509.69;;;10.53;100.00
47985;BME280;33753;52.912;-7.342;2023-05-22T05:29:18;101513.56;;;10.50;100.00
47985;BME280;33753;52.912;-7.342;2023-05-22T05:31:54;101505.00;;;10.55;100.00
47985;BME280;33753;52.912;-7.342;2023-05-22T05:34:45;101497.16;;;10.52;100.00
47985;BME280;33753;52.912;-7.342;2023-05-22T05:37:24;101509.69;;;10.53;100.00
47985;BME280;33753;52.912;-7.342;2023-05-22T05:39:55;101501.28;;;10.56;100.00
47985;BME280;33753;52.912;-7.342;2023-05-22T05:42:24;101495.59;;;10.49;100.00
47985;BME280;33753;52.912;-7.342;2023-05-22T05:44:55;101496.75;;;10.47;100.00
47985;BME280;33753;52.912;-7.342;2023-05-22T05:47:26;101494.47;;;10.42;100.00
47985;BME280;33753;52.912;-7.342;2023-05-22T05:49:55;101495.06;;;10.36;100.00
47985;BME280;33753;52.912;-7.342;2023-05-22T05:52:27;101501.88;;;10.40;100.00
47985;BME280;33753;52.912;-7.342;2023-05-22T05:55:01;101504.44;;;10.42;100.00
47985;BME280;33753;52.912;-7.342;2023-05-22T05:57:30;101513.28;;;10.44;100.00
47985;BME280;33753;52.912;-7.342;2023-05-22T05:59:58;101514.41;;;10.41;100.00
47985;BME280;33753;52.912;-7.342;2023-05-22T06:02:54;101522.38;;;10.43;100.00
47985;BME280;33753;52.912;-7.342;2023-05-22T06:05:40;101531.47;;;10.51;100.00
47985;BME280;33753;52.912;-7.342;2023-05-22T06:08:24;101531.47;;;10.51;100.00
47985;BME280;33753;52.912;-7.342;2023-05-22T06:10:54;101529.63;;;10.52;100.00
47985;BME280;33753;52.912;-7.342;2023-05-22T06:13:32;101536.31;;;10.58;100.00
47985;BME280;33753;52.912;-7.342;2023-05-22T06:16:00;101529.19;;;10.57;100.00
47985;BME280;33753;52.912;-7.342;2023-05-22T06:18:34;101539.38;;;10.82;100.00
47985;BME280;33753;52.912;-7.342;2023-05-22T06:21:04;101535.59;;;11.03;100.00
47985;BME280;33753;52.912;-7.342;2023-05-22T06:23:33;101535.22;;;11.26;100.00
47985;BME280;33753;52.912;-7.342;2023-05-22T06:26:01;101544.88;;;11.38;100.00
47985;BME280;33753;52.912;-7.342;2023-05-22T06:28:31;101517.75;;;11.48;100.00
47985;BME280;33753;52.912;-7.342;2023-05-22T06:31:01;101517.97;;;11.54;100.00
47985;BME280;33753;52.912;-7.342;2023-05-22T06:33:30;101510.00;;;11.53;100.00
47985;BME280;33753;52.912;-7.342;2023-05-22T06:36:01;101499.16;;;11.53;100.00
47985;BME280;33753;52.912;-7.342;2023-05-22T06:38:30;101495.59;;;11.52;100.00
47985;BME280;33753;52.912;-7.342;2023-05-22T06:41:00;101493.94;;;11.69;100.00
47985;BME280;33753;52.912;-7.342;2023-05-22T06:43:28;101494.53;;;11.81;100.00
47985;BME280;33753;52.912;-7.342;2023-05-22T06:46:05;101493.47;;;11.92;100.00
47985;BME280;33753;52.912;-7.342;2023-05-22T06:48:54;101503.91;;;11.87;100.00
47985;BME280;33753;52.912;-7.342;2023-05-22T06:51:26;101508.88;;;11.91;100.00
47985;BME280;33753;52.912;-7.342;2023-05-22T06:54:02;101498.56;;;11.77;100.00
47985;BME280;33753;52.912;-7.342;2023-05-22T06:56:34;101495.75;;;11.69;100.00
47985;BME280;33753;52.912;-7.342;2023-05-22T06:59:08;101492.84;;;11.62;100.00
47985;BME280;33753;52.912;-7.342;2023-05-22T07:01:59;101489.19;;;11.53;100.00
47985;BME280;33753;52.912;-7.342;2023-05-22T07:04:46;101489.88;;;11.55;100.00
47985;BME280;33753;52.912;-7.342;2023-05-22T07:07:21;101506.84;;;11.57;100.00
47985;BME280;33753;52.912;-7.342;2023-05-22T07:09:50;101497.69;;;11.58;100.00
47985;BME280;33753;52.912;-7.342;2023-05-22T07:12:18;101510.25;;;11.59;100.00
47985;BME280;33753;52.912;-7.342;2023-05-22T07:14:52;101501.44;;;11.57;100.00
47985;BME280;33753;52.912;-7.342;2023-05-22T07:17:24;101508.72;;;11.75;100.00
47985;BME280;33753;52.912;-7.342;2023-05-22T07:19:53;101505.91;;;11.95;100.00
47985;BME280;33753;52.912;-7.342;2023-05-22T07:22:23;101499.41;;;12.32;100.00
47985;BME280;33753;52.912;-7.342;2023-05-22T07:24:53;101508.09;;;12.79;100.00
47985;BME280;33753;52.912;-7.342;2023-05-22T07:27:24;101513.63;;;13.30;100.00
47985;BME280;33753;52.912;-7.342;2023-05-22T07:29:53;101508.00;;;13.75;100.00
47985;BME280;33753;52.912;-7.342;2023-05-22T07:32:22;101490.69;;;14.00;100.00
47985;BME280;33753;52.912;-7.342;2023-05-22T07:34:50;101478.09;;;14.16;100.00
47985;BME280;33753;52.912;-7.342;2023-05-22T07:37:19;101479.44;;;14.53;100.00
47985;BME280;33753;52.912;-7.342;2023-05-22T07:39:49;101480.06;;;14.96;100.00
47985;BME280;33753;52.912;-7.342;2023-05-22T07:42:18;101482.19;;;15.49;100.00
47985;BME280;33753;52.912;-7.342;2023-05-22T07:44:52;101478.13;;;15.76;100.00
47985;BME280;33753;52.912;-7.342;2023-05-22T07:47:20;101469.34;;;16.12;100.00
47985;BME280;33753;52.912;-7.342;2023-05-22T07:49:49;101465.94;;;16.33;100.00
47985;BME280;33753;52.912;-7.342;2023-05-22T07:52:18;101456.53;;;16.66;100.00
47985;BME280;33753;52.912;-7.342;2023-05-22T07:54:50;101456.78;;;16.94;100.00
47985;BME280;33753;52.912;-7.342;2023-05-22T07:57:19;101452.03;;;16.58;100.00
47985;BME280;33753;52.912;-7.342;2023-05-22T07:59:50;101449.38;;;16.35;100.00
47985;BME280;33753;52.912;-7.342;2023-05-22T08:02:18;101451.03;;;16.21;100.00
47985;BME280;33753;52.912;-7.342;2023-05-22T08:04:46;101460.13;;;15.90;100.00
47985;BME280;33753;52.912;-7.342;2023-05-22T08:07:16;101453.72;;;15.83;100.00
47985;BME280;33753;52.912;-7.342;2023-05-22T08:09:44;101458.16;;;15.52;100.00
47985;BME280;33753;52.912;-7.342;2023-05-22T08:12:13;101466.34;;;15.21;100.00
47985;BME280;33753;52.912;-7.342;2023-05-22T08:14:42;101468.03;;;15.22;100.00
47985;BME280;33753;52.912;-7.342;2023-05-22T08:17:10;101467.56;;;15.42;100.00
47985;BME280;33753;52.912;-7.342;2023-05-22T08:19:38;101469.00;;;15.92;100.00
47985;BME280;33753;52.912;-7.342;2023-05-22T08:22:07;101471.03;;;16.13;100.00
47985;BME280;33753;52.912;-7.342;2023-05-22T08:24:35;101472.28;;;16.11;100.00
47985;BME280;33753;52.912;-7.342;2023-05-22T08:27:04;101473.63;;;16.15;100.00
47985;BME280;33753;52.912;-7.342;2023-05-22T08:29:33;101472.72;;;15.68;100.00
47985;BME280;33753;52.912;-7.342;2023-05-22T08:32:02;101469.84;;;15.61;100.00
47985;BME280;33753;52.912;-7.342;2023-05-22T08:34:30;101477.25;;;15.13;100.00
47985;BME280;33753;52.912;-7.342;2023-05-22T08:36:59;101482.31;;;14.60;100.00
47985;BME280;33753;52.912;-7.342;2023-05-22T08:39:27;101483.88;;;14.62;100.00
47985;BME280;33753;52.912;-7.342;2023-05-22T08:41:56;101485.06;;;14.51;100.00
47985;BME280;33753;52.912;-7.342;2023-05-22T08:44:25;101478.78;;;14.67;100.00
47985;BME280;33753;52.912;-7.342;2023-05-22T08:46:55;101482.81;;;14.88;100.00
47985;BME280;33753;52.912;-7.342;2023-05-22T08:49:25;101468.69;;;15.24;100.00
47985;BME280;33753;52.912;-7.342;2023-05-22T08:51:55;101476.09;;;15.70;100.00
47985;BME280;33753;52.912;-7.342;2023-05-22T08:54:27;101472.38;;;16.17;100.00
47985;BME280;33753;52.912;-7.342;2023-05-22T08:56:56;101466.28;;;16.30;100.00
47985;BME280;33753;52.912;-7.342;2023-05-22T08:59:24;101467.59;;;16.19;100.00
47985;BME280;33753;52.912;-7.342;2023-05-22T09:01:52;101471.69;;;16.38;100.00
47985;BME280;33753;52.912;-7.342;2023-05-22T09:04:22;101480.94;;;16.14;100.00
47985;BME280;33753;52.912;-7.342;2023-05-22T09:06:51;101469.81;;;15.69;100.00
47985;BME280;33753;52.912;-7.342;2023-05-22T09:09:20;101476.97;;;15.70;100.00
47985;BME280;33753;52.912;-7.342;2023-05-22T09:11:49;101473.81;;;16.28;100.00
47985;BME280;33753;52.912;-7.342;2023-05-22T09:14:17;101472.88;;;16.21;100.00
47985;BME280;33753;52.912;-7.342;2023-05-22T09:16:46;101466.44;;;16.52;100.00
47985;BME280;33753;52.912;-7.342;2023-05-22T09:19:15;101457.81;;;16.25;100.00
47985;BME280;33753;52.912;-7.342;2023-05-22T09:21:44;101463.91;;;16.12;100.00
47985;BME280;33753;52.912;-7.342;2023-05-22T09:24:13;101461.78;;;16.37;100.00
47985;BME280;33753;52.912;-7.342;2023-05-22T09:26:42;101457.44;;;16.28;100.00
47985;BME280;33753;52.912;-7.342;2023-05-22T09:29:10;101465.22;;;16.16;100.00
47985;BME280;33753;52.912;-7.342;2023-05-22T09:31:41;101465.06;;;16.18;100.00
47985;BME280;33753;52.912;-7.342;2023-05-22T09:34:13;101462.59;;;15.85;100.00
47985;BME280;33753;52.912;-7.342;2023-05-22T09:36:41;101452.47;;;15.62;100.00
47985;BME280;33753;52.912;-7.342;2023-05-22T09:39:11;101463.63;;;15.76;100.00
47985;BME280;33753;52.912;-7.342;2023-05-22T09:41:40;101448.22;;;16.29;100.00
47985;BME280;33753;52.912;-7.342;2023-05-22T09:44:11;101453.75;;;16.21;100.00
47985;BME280;33753;52.912;-7.342;2023-05-22T09:46:40;101445.91;;;16.71;100.00
47985;BME280;33753;52.912;-7.342;2023-05-22T09:49:09;101461.28;;;16.87;100.00
47985;BME280;33753;52.912;-7.342;2023-05-22T09:51:41;101455.81;;;17.17;100.00
47985;BME280;33753;52.912;-7.342;2023-05-22T09:54:15;101456.69;;;17.54;100.00
47985;BME280;33753;52.912;-7.342;2023-05-22T09:56:43;101444.56;;;18.56;100.00
47985;BME280;33753;52.912;-7.342;2023-05-22T09:59:18;101436.41;;;18.98;100.00
47985;BME280;33753;52.912;-7.342;2023-05-22T10:01:47;101434.03;;;19.37;100.00
47985;BME280;33753;52.912;-7.342;2023-05-22T10:04:17;101434.09;;;19.70;100.00
47985;BME280;33753;52.912;-7.342;2023-05-22T10:06:47;101443.75;;;19.39;100.00
47985;BME280;33753;52.912;-7.342;2023-05-22T10:09:20;101439.69;;;20.17;100.00
47985;BME280;33753;52.912;-7.342;2023-05-22T10:11:49;101431.00;;;20.27;100.00
47985;BME280;33753;52.912;-7.342;2023-05-22T10:14:20;101434.56;;;20.67;100.00
47985;BME280;33753;52.912;-7.342;2023-05-22T10:16:49;101443.38;;;20.96;100.00
47985;BME280;33753;52.912;-7.342;2023-05-22T10:19:17;101437.47;;;20.93;100.00
47985;BME280;33753;52.912;-7.342;2023-05-22T10:21:46;101445.28;;;20.89;100.00
47985;BME280;33753;52.912;-7.342;2023-05-22T10:24:15;101442.88;;;21.13;100.00
47985;BME280;33753;52.912;-7.342;2023-05-22T10:26:45;101443.16;;;21.56;100.00
47985;BME280;33753;52.912;-7.342;2023-05-22T10:29:15;101442.47;;;21.93;100.00
47985;BME280;33753;52.912;-7.342;2023-05-22T10:31:48;101438.97;;;22.55;100.00
47985;BME280;33753;52.912;-7.342;2023-05-22T10:34:27;101442.56;;;22.37;100.00
47985;BME280;33753;52.912;-7.342;2023-05-22T10:37:03;101447.94;;;22.50;100.00
47985;BME280;33753;52.912;-7.342;2023-05-22T10:39:47;101450.75;;;23.06;100.00
47985;BME280;33753;52.912;-7.342;2023-05-22T10:42:22;101441.88;;;23.53;100.00
47985;BME280;33753;52.912;-7.342;2023-05-22T10:44:51;101439.59;;;23.19;100.00
47985;BME280;33753;52.912;-7.342;2023-05-22T10:47:20;101432.13;;;23.01;100.00
47985;BME280;33753;52.912;-7.342;2023-05-22T10:49:48;101434.13;;;22.94;100.00
47985;BME280;33753;52.912;-7.342;2023-05-22T10:52:17;101440.97;;;22.48;100.00
47985;BME280;33753;52.912;-7.342;2023-05-22T10:54:47;101446.50;;;22.85;100.00
47985;BME280;33753;52.912;-7.342;2023-05-22T10:57:19;101450.63;;;22.32;100.00
47985;BME280;33753;52.912;-7.342;2023-05-22T11:00:04;101441.31;;;22.33;100.00
47985;BME280;33753;52.912;-7.342;2023-05-22T11:02:36;101445.56;;;22.29;100.00
47985;BME280;33753;52.912;-7.342;2023-05-22T11:07:52;101466.31;;;21.81;100.00
47985;BME280;33753;52.912;-7.342;2023-05-22T11:10:51;101449.72;;;21.87;100.00
47985;BME280;33753;52.912;-7.342;2023-05-22T11:13:20;101449.34;;;21.77;100.00
47985;BME280;33753;52.912;-7.342;2023-05-22T11:15:50;101451.56;;;21.62;100.00
47985;BME280;33753;52.912;-7.342;2023-05-22T11:18:18;101450.97;;;21.46;100.00
47985;BME280;33753;52.912;-7.342;2023-05-22T11:20:47;101457.31;;;21.01;100.00
47985;BME280;33753;52.912;-7.342;2023-05-22T11:23:16;101456.56;;;20.47;100.00
47985;BME280;33753;52.912;-7.342;2023-05-22T11:25:45;101443.47;;;20.49;100.00
47985;BME280;33753;52.912;-7.342;2023-05-22T11:28:13;101446.81;;;20.65;100.00
47985;BME280;33753;52.912;-7.342;2023-05-22T11:30:42;101449.19;;;20.28;100.00
47985;BME280;33753;52.912;-7.342;2023-05-22T11:33:13;101447.22;;;20.62;100.00
47985;BME280;33753;52.912;-7.342;2023-05-22T11:35:42;101438.91;;;21.47;100.00
47985;BME280;33753;52.912;-7.342;2023-05-22T11:38:11;101444.22;;;20.97;100.00
47985;BME280;33753;52.912;-7.342;2023-05-22T11:40:41;101461.69;;;21.29;100.00
47985;BME280;33753;52.912;-7.342;2023-05-22T11:43:09;101461.53;;;21.63;100.00
47985;BME280;33753;52.912;-7.342;2023-05-22T11:45:38;101451.81;;;22.17;100.00
47985;BME280;33753;52.912;-7.342;2023-05-22T11:48:07;101457.25;;;21.99;100.00
47985;BME280;33753;52.912;-7.342;2023-05-22T11:50:37;101449.97;;;22.11;100.00
47985;BME280;33753;52.912;-7.342;2023-05-22T11:53:08;101448.66;;;21.43;100.00
47985;BME280;33753;52.912;-7.342;2023-05-22T11:55:36;101447.84;;;20.91;100.00
47985;BME280;33753;52.912;-7.342;2023-05-22T11:58:04;101451.88;;;20.88;100.00
47985;BME280;33753;52.912;-7.342;2023-05-22T12:00:32;101448.09;;;20.82;100.00
47985;BME280;33753;52.912;-7.342;2023-05-22T12:03:01;101454.34;;;21.03;100.00
47985;BME280;33753;52.912;-7.342;2023-05-22T12:05:30;101450.84;;;21.28;100.00
47985;BME280;33753;52.912;-7.342;2023-05-22T12:07:59;101445.63;;;21.65;100.00
47985;BME280;33753;52.912;-7.342;2023-05-22T12:10:30;101451.06;;;21.78;100.00
47985;BME280;33753;52.912;-7.342;2023-05-22T12:12:58;101455.47;;;22.11;100.00
47985;BME280;33753;52.912;-7.342;2023-05-22T12:15:26;101446.13;;;21.55;100.00
47985;BME280;33753;52.912;-7.342;2023-05-22T12:17:54;101448.41;;;21.90;100.00
47985;BME280;33753;52.912;-7.342;2023-05-22T12:20:27;101457.75;;;21.89;100.00
47985;BME280;33753;52.912;-7.342;2023-05-22T12:22:55;101451.47;;;21.36;100.00
47985;BME280;33753;52.912;-7.342;2023-05-22T12:25:31;101443.97;;;21.50;100.00
47985;BME280;33753;52.912;-7.342;2023-05-22T12:28:00;101438.44;;;21.64;100.00
47985;BME280;33753;52.912;-7.342;2023-05-22T12:30:37;101439.53;;;22.13;100.00
47985;BME280;33753;52.912;-7.342;2023-05-22T12:33:10;101445.56;;;22.29;100.00
47985;BME280;33753;52.912;-7.342;2023-05-22T12:35:39;101449.19;;;22.54;100.00
47985;BME280;33753;52.912;-7.342;2023-05-22T12:38:08;101449.13;;;22.36;100.00
47985;BME280;33753;52.912;-7.342;2023-05-22T12:40:40;101446.59;;;22.59;100.00
47985;BME280;33753;52.912;-7.342;2023-05-22T12:43:08;101463.38;;;21.69;100.00
47985;BME280;33753;52.912;-7.342;2023-05-22T12:45:37;101464.91;;;21.13;100.00
47985;BME280;33753;52.912;-7.342;2023-05-22T12:48:07;101460.00;;;21.21;100.00
47985;BME280;33753;52.912;-7.342;2023-05-22T12:50:36;101453.06;;;21.12;100.00
47985;BME280;33753;52.912;-7.342;2023-05-22T12:53:04;101460.72;;;21.49;100.00